sensor_id;sensor_type;location;lat;lon;timestamp;pressure;altitude;pressure_sealevel;temperature;humidity
39051;BME280;24805;55.852;37.644;2024-03-06T00:01:09;100472.50;;;-3.02;49.11
39051;BME280;24805;55.852;37.644;2024-03-06T00:06:12;100465.97;;;-3.11;49.00
39051;BME280;24805;55.852;37.644;2024-03-06T00:11:14;100473.34;;;-3.21;48.82
39051;BME280;24805;55.852;37.644;2024-03-06T00:16:17;100473.47;;;-3.24;48.92
39051;BME280;24805;55.852;37.644;2024-03-06T00:21:21;100477.03;;;-3.26;49.22
39051;BME280;24805;55.852;37.644;2024-03-06T00:26:23;100468.78;;;-3.36;49.35
39051;BME280;24805;55.852;37.644;2024-03-06T00:31:25;100476.56;;;-3.36;49.16
39051;BME280;24805;55.852;37.644;2024-03-06T00:36:29;100477.84;;;-3.44;49.62
39051;BME280;24805;55.852;37.644;2024-03-06T00:41:31;100476.34;;;-3.50;49.09
39051;BME280;24805;55.852;37.644;2024-03-06T00:46:33;100470.56;;;-3.57;49.34
39051;BME280;24805;55.852;37.644;2024-03-06T00:51:36;100477.56;;;-3.59;48.87
39051;BME280;24805;55.852;37.644;2024-03-06T00:56:49;100449.81;;;-3.77;49.00
39051;BME280;24805;55.852;37.644;2024-03-06T01:01:52;100464.47;;;-3.76;48.79
39051;BME280;24805;55.852;37.644;2024-03-06T01:06:58;100472.59;;;-3.84;49.08
39051;BME280;24805;55.852;37.644;2024-03-06T01:12:00;100471.97;;;-3.90;49.87
39051;BME280;24805;55.852;37.644;2024-03-06T01:17:02;100476.44;;;-3.94;49.04
39051;BME280;24805;55.852;37.644;2024-03-06T01:22:05;100470.94;;;-4.06;49.58
39051;BME280;24805;55.852;37.644;2024-03-06T01:27:08;100468.34;;;-4.06;49.40
39051;BME280;24805;55.852;37.644;2024-03-06T01:32:10;100460.63;;;-4.08;49.65
39051;BME280;24805;55.852;37.644;2024-03-06T01:37:12;100472.06;;;-4.13;49.28
39051;BME280;24805;55.852;37.644;2024-03-06T01:42:17;100472.72;;;-4.08;49.83
39051;BME280;24805;55.852;37.644;2024-03-06T01:47:20;100477.44;;;-4.18;49.50
39051;BME280;24805;55.852;37.644;2024-03-06T01:52:23;100479.38;;;-4.23;49.86
39051;BME280;24805;55.852;37.644;2024-03-06T01:57:25;100479.97;;;-4.38;49.42
39051;BME280;24805;55.852;37.644;2024-03-06T02:02:28;100487.63;;;-4.35;50.45
39051;BME280;24805;55.852;37.644;2024-03-06T02:07:32;100477.19;;;-4.34;49.54
39051;BME280;24805;55.852;37.644;2024-03-06T02:12:34;100470.03;;;-4.49;49.87
39051;BME280;24805;55.852;37.644;2024-03-06T02:17:36;100481.88;;;-4.42;49.48
39051;BME280;24805;55.852;37.644;2024-03-06T02:22:40;100485.34;;;-4.43;49.55
39051;BME280;24805;55.852;37.644;2024-03-06T02:27:43;100481.13;;;-4.45;49.17
39051;BME280;24805;55.852;37.644;2024-03-06T02:32:46;100490.88;;;-4.52;49.68
39051;BME280;24805;55.852;37.644;2024-03-06T02:37:48;100489.28;;;-4.56;49.56
39051;BME280;24805;55.852;37.644;2024-03-06T02:42:51;100498.03;;;-4.59;49.67
39051;BME280;24805;55.852;37.644;2024-03-06T02:47:55;100495.81;;;-4.68;49.92
39051;BME280;24805;55.852;37.644;2024-03-06T02:52:57;100507.91;;;-4.68;49.90
39051;BME280;24805;55.852;37.644;2024-03-06T02:58:03;100518.16;;;-4.65;50.05
39051;BME280;24805;55.852;37.644;2024-03-06T03:03:06;100531.38;;;-4.73;49.37
39051;BME280;24805;55.852;37.644;2024-03-06T03:08:08;100534.91;;;-4.75;49.62
39051;BME280;24805;55.852;37.644;2024-03-06T03:13:11;100547.13;;;-4.79;49.92
39051;BME280;24805;55.852;37.644;2024-03-06T03:18:14;100552.44;;;-4.82;49.91
39051;BME280;24805;55.852;37.644;2024-03-06T03:23:17;100554.28;;;-4.86;48.92
39051;BME280;24805;55.852;37.644;2024-03-06T03:28:24;100551.84;;;-4.90;49.14
39051;BME280;24805;55.852;37.644;2024-03-06T03:33:26;100554.53;;;-4.93;48.39
39051;BME280;24805;55.852;37.644;2024-03-06T03:38:29;100561.56;;;-4.97;48.98
39051;BME280;24805;55.852;37.644;2024-03-06T03:43:31;100519.13;;;-5.16;48.47
39051;BME280;24805;55.852;37.644;2024-03-06T03:48:35;100548.13;;;-5.06;48.92
39051;BME280;24805;55.852;37.644;2024-03-06T03:53:39;100533.16;;;-5.22;49.39
39051;BME280;24805;55.852;37.644;2024-03-06T03:58:41;100540.22;;;-5.27;49.01
39051;BME280;24805;55.852;37.644;2024-03-06T04:03:44;100538.69;;;-5.32;50.03
39051;BME280;24805;55.852;37.644;2024-03-06T04:08:46;100536.28;;;-5.38;50.20
39051;BME280;24805;55.852;37.644;2024-03-06T04:13:48;100544.94;;;-5.39;50.19
39051;BME280;24805;55.852;37.644;2024-03-06T04:18:50;100551.81;;;-5.38;49.93
39051;BME280;24805;55.852;37.644;2024-03-06T04:23:53;100555.03;;;-5.32;50.21
39051;BME280;24805;55.852;37.644;2024-03-06T04:28:56;100558.31;;;-5.27;49.47
39051;BME280;24805;55.852;37.644;2024-03-06T04:33:58;100556.31;;;-5.18;49.52
39051;BME280;24805;55.852;37.644;2024-03-06T04:39:00;100549.03;;;-5.07;49.36
39051;BME280;24805;55.852;37.644;2024-03-06T04:44:03;100534.28;;;-5.05;49.50
39051;BME280;24805;55.852;37.644;2024-03-06T04:49:05;100552.28;;;-4.56;49.27
39051;BME280;24805;55.852;37.644;2024-03-06T04:54:08;100550.91;;;-3.55;47.51
39051;BME280;24805;55.852;37.644;2024-03-06T04:59:10;100557.59;;;-2.70;45.55
39051;BME280;24805;55.852;37.644;2024-03-06T05:04:13;100552.84;;;-1.87;43.32
39051;BME280;24805;55.852;37.644;2024-03-06T05:09:32;100543.84;;;-1.11;42.69
39051;BME280;24805;55.852;37.644;2024-03-06T05:14:54;100555.53;;;-0.20;40.81
39051;BME280;24805;55.852;37.644;2024-03-06T05:20:14;100544.66;;;0.63;39.80
39051;BME280;24805;55.852;37.644;2024-03-06T05:25:34;100505.53;;;1.06;38.44
39051;BME280;24805;55.852;37.644;2024-03-06T05:30:54;100551.34;;;1.68;38.01
39051;BME280;24805;55.852;37.644;2024-03-06T05:36:13;100546.47;;;2.57;36.14
39051;BME280;24805;55.852;37.644;2024-03-06T05:41:33;100548.56;;;3.40;34.70
39051;BME280;24805;55.852;37.644;2024-03-06T05:46:52;100551.75;;;3.82;34.56
39051;BME280;24805;55.852;37.644;2024-03-06T05:52:12;100550.34;;;4.96;32.38
39051;BME280;24805;55.852;37.644;2024-03-06T05:57:32;100552.63;;;6.65;30.07
39051;BME280;24805;55.852;37.644;2024-03-06T06:02:51;100542.78;;;8.19;28.44
39051;BME280;24805;55.852;37.644;2024-03-06T06:07:53;100543.06;;;8.93;25.95
39051;BME280;24805;55.852;37.644;2024-03-06T06:12:56;100527.44;;;8.03;26.47
39051;BME280;24805;55.852;37.644;2024-03-06T06:17:58;100547.56;;;6.73;27.38
39051;BME280;24805;55.852;37.644;2024-03-06T06:23:03;100562.94;;;5.14;28.90
39051;BME280;24805;55.852;37.644;2024-03-06T06:28:06;100554.16;;;3.85;30.34
39051;BME280;24805;55.852;37.644;2024-03-06T06:33:08;100562.97;;;3.22;31.24
39051;BME280;24805;55.852;37.644;2024-03-06T06:38:11;100561.50;;;2.93;31.83
39051;BME280;24805;55.852;37.644;2024-03-06T06:43:13;100569.03;;;2.72;31.87
39051;BME280;24805;55.852;37.644;2024-03-06T06:48:15;100562.94;;;2.59;32.07
39051;BME280;24805;55.852;37.644;2024-03-06T06:53:18;100571.19;;;2.65;32.22
39051;BME280;24805;55.852;37.644;2024-03-06T06:58:20;100567.88;;;2.89;31.82
39051;BME280;24805;55.852;37.644;2024-03-06T07:03:22;100571.69;;;3.10;31.34
39051;BME280;24805;55.852;37.644;2024-03-06T07:08:31;100575.56;;;3.30;31.39
39051;BME280;24805;55.852;37.644;2024-03-06T07:13:33;100577.69;;;3.37;31.18
39051;BME280;24805;55.852;37.644;2024-03-06T07:18:35;100576.59;;;3.40;30.49
39051;BME280;24805;55.852;37.644;2024-03-06T07:23:38;100557.84;;;3.33;30.76
39051;BME280;24805;55.852;37.644;2024-03-06T07:28:41;100576.50;;;3.54;30.79
39051;BME280;24805;55.852;37.644;2024-03-06T07:33:43;100579.84;;;3.56;30.87
39051;BME280;24805;55.852;37.644;2024-03-06T07:38:45;100583.13;;;3.34;30.37
39051;BME280;24805;55.852;37.644;2024-03-06T07:43:48;100570.94;;;3.21;30.64
39051;BME280;24805;55.852;37.644;2024-03-06T07:48:50;100571.28;;;3.16;30.84
39051;BME280;24805;55.852;37.644;2024-03-06T07:53:53;100596.47;;;3.80;30.32
39051;BME280;24805;55.852;37.644;2024-03-06T07:58:56;100593.03;;;4.64;29.16
39051;BME280;24805;55.852;37.644;2024-03-06T08:03:58;100596.63;;;5.09;28.24
39051;BME280;24805;55.852;37.644;2024-03-06T08:09:00;100590.84;;;5.39;27.95
39051;BME280;24805;55.852;37.644;2024-03-06T08:14:06;100591.66;;;5.51;27.86
39051;BME280;24805;55.852;37.644;2024-03-06T08:19:08;100591.44;;;5.99;27.16
39051;BME280;24805;55.852;37.644;2024-03-06T08:24:12;100591.69;;;6.71;26.43
39051;BME280;24805;55.852;37.644;2024-03-06T08:29:14;100582.88;;;7.23;25.44
39051;BME280;24805;55.852;37.644;2024-03-06T08:34:16;100585.38;;;7.85;25.62
39051;BME280;24805;55.852;37.644;2024-03-06T08:39:19;100575.22;;;8.88;24.36
39051;BME280;24805;55.852;37.644;2024-03-06T08:44:21;100569.91;;;9.54;23.84
39051;BME280;24805;55.852;37.644;2024-03-06T08:49:23;100574.38;;;9.81;23.12
39051;BME280;24805;55.852;37.644;2024-03-06T08:54:26;100577.19;;;9.52;23.13
39051;BME280;24805;55.852;37.644;2024-03-06T08:59:31;100575.22;;;9.82;23.12
39051;BME280;24805;55.852;37.644;2024-03-06T09:04:33;100559.06;;;9.48;22.05
39051;BME280;24805;55.852;37.644;2024-03-06T09:09:36;100563.06;;;9.15;22.82
39051;BME280;24805;55.852;37.644;2024-03-06T09:14:39;100559.38;;;8.50;22.78
39051;BME280;24805;55.852;37.644;2024-03-06T09:19:42;100547.91;;;8.11;22.79
39051;BME280;24805;55.852;37.644;2024-03-06T09:25:05;100538.22;;;7.71;23.91
39051;BME280;24805;55.852;37.644;2024-03-06T09:30:09;100559.16;;;7.63;23.98
39051;BME280;24805;55.852;37.644;2024-03-06T09:35:11;100558.31;;;7.63;23.63
39051;BME280;24805;55.852;37.644;2024-03-06T09:40:23;100549.22;;;7.86;23.52
39051;BME280;24805;55.852;37.644;2024-03-06T09:45:25;100547.22;;;7.59;23.52
39051;BME280;24805;55.852;37.644;2024-03-06T09:50:29;100542.72;;;7.50;22.85
39051;BME280;24805;55.852;37.644;2024-03-06T09:55:34;100539.97;;;7.00;23.53
39051;BME280;24805;55.852;37.644;2024-03-06T10:00:37;100547.50;;;6.84;23.88
39051;BME280;24805;55.852;37.644;2024-03-06T10:05:40;100519.13;;;6.97;23.61
39051;BME280;24805;55.852;37.644;2024-03-06T10:10:48;100540.47;;;7.45;23.04
39051;BME280;24805;55.852;37.644;2024-03-06T10:16:01;100535.88;;;7.87;23.12
39051;BME280;24805;55.852;37.644;2024-03-06T10:21:04;100512.50;;;7.73;23.59
39051;BME280;24805;55.852;37.644;2024-03-06T10:26:07;100528.13;;;8.05;21.95
39051;BME280;24805;55.852;37.644;2024-03-06T10:31:10;100515.41;;;8.58;22.81
39051;BME280;24805;55.852;37.644;2024-03-06T10:36:13;100516.41;;;9.41;20.90
39051;BME280;24805;55.852;37.644;2024-03-06T10:41:15;100527.84;;;10.24;20.68
39051;BME280;24805;55.852;37.644;2024-03-06T10:46:23;100517.88;;;11.05;19.46
39051;BME280;24805;55.852;37.644;2024-03-06T10:51:27;100519.06;;;11.70;19.75
39051;BME280;24805;55.852;37.644;2024-03-06T10:56:31;100514.75;;;12.36;19.38
39051;BME280;24805;55.852;37.644;2024-03-06T11:01:35;100507.44;;;12.79;17.91
39051;BME280;24805;55.852;37.644;2024-03-06T11:06:38;100510.66;;;13.45;18.10
39051;BME280;24805;55.852;37.644;2024-03-06T11:11:50;100502.38;;;14.02;18.08
39051;BME280;24805;55.852;37.644;2024-03-06T11:17:03;100490.63;;;13.89;17.53
39051;BME280;24805;55.852;37.644;2024-03-06T11:22:05;100497.91;;;13.64;17.47
39051;BME280;24805;55.852;37.644;2024-03-06T11:27:08;100492.91;;;14.68;16.60
39051;BME280;24805;55.852;37.644;2024-03-06T11:32:12;100483.66;;;16.18;14.85
39051;BME280;24805;55.852;37.644;2024-03-06T11:37:20;100475.91;;;18.76;13.81
39051;BME280;24805;55.852;37.644;2024-03-06T11:42:33;100475.88;;;21.91;11.84
39051;BME280;24805;55.852;37.644;2024-03-06T11:47:56;100464.91;;;25.20;9.22
39051;BME280;24805;55.852;37.644;2024-03-06T11:52:58;100455.28;;;25.94;9.32
39051;BME280;24805;55.852;37.644;2024-03-06T11:58:01;100435.66;;;25.05;9.57
39051;BME280;24805;55.852;37.644;2024-03-06T12:03:05;100439.75;;;24.07;9.08
39051;BME280;24805;55.852;37.644;2024-03-06T12:08:07;100434.06;;;23.40;9.58
39051;BME280;24805;55.852;37.644;2024-03-06T12:13:10;100432.63;;;24.18;9.51
39051;BME280;24805;55.852;37.644;2024-03-06T12:18:12;100426.13;;;24.19;9.10
39051;BME280;24805;55.852;37.644;2024-03-06T12:23:21;100424.72;;;22.73;9.80
39051;BME280;24805;55.852;37.644;2024-03-06T12:28:28;100423.41;;;19.51;11.22
39051;BME280;24805;55.852;37.644;2024-03-06T12:33:32;100420.88;;;17.04;12.37
39051;BME280;24805;55.852;37.644;2024-03-06T12:38:39;100414.22;;;15.74;13.40
39051;BME280;24805;55.852;37.644;2024-03-06T12:43:41;100409.28;;;14.07;14.52
39051;BME280;24805;55.852;37.644;2024-03-06T12:48:44;100406.31;;;13.57;15.02
39051;BME280;24805;55.852;37.644;2024-03-06T12:53:46;100406.16;;;13.50;15.26
39051;BME280;24805;55.852;37.644;2024-03-06T12:58:50;100398.00;;;13.04;15.24
39051;BME280;24805;55.852;37.644;2024-03-06T13:03:53;100398.50;;;12.36;15.28
39051;BME280;24805;55.852;37.644;2024-03-06T13:08:59;100379.66;;;11.57;15.82
39051;BME280;24805;55.852;37.644;2024-03-06T13:14:01;100401.06;;;10.79;16.19
39051;BME280;24805;55.852;37.644;2024-03-06T13:19:03;100394.25;;;10.25;16.87
39051;BME280;24805;55.852;37.644;2024-03-06T13:24:06;100390.00;;;10.84;16.73
39051;BME280;24805;55.852;37.644;2024-03-06T13:29:08;100394.03;;;12.37;16.36
39051;BME280;24805;55.852;37.644;2024-03-06T13:34:10;100378.97;;;13.24;15.49
39051;BME280;24805;55.852;37.644;2024-03-06T13:39:13;100387.91;;;13.93;14.91
39051;BME280;24805;55.852;37.644;2024-03-06T13:44:15;100384.88;;;14.19;14.69
39051;BME280;24805;55.852;37.644;2024-03-06T13:49:37;100366.75;;;14.66;14.45
39051;BME280;24805;55.852;37.644;2024-03-06T13:54:41;100379.78;;;13.86;14.13
39051;BME280;24805;55.852;37.644;2024-03-06T13:59:44;100372.69;;;13.17;14.40
39051;BME280;24805;55.852;37.644;2024-03-06T14:04:46;100373.66;;;12.60;14.06
39051;BME280;24805;55.852;37.644;2024-03-06T14:09:51;100371.75;;;12.30;14.58
39051;BME280;24805;55.852;37.644;2024-03-06T14:14:54;100365.38;;;11.74;14.75
39051;BME280;24805;55.852;37.644;2024-03-06T14:19:56;100362.56;;;11.09;14.73
39051;BME280;24805;55.852;37.644;2024-03-06T14:24:58;100359.56;;;10.44;14.73
39051;BME280;24805;55.852;37.644;2024-03-06T14:30:01;100356.25;;;9.81;15.65
39051;BME280;24805;55.852;37.644;2024-03-06T14:35:05;100351.16;;;9.16;16.27
39051;BME280;24805;55.852;37.644;2024-03-06T14:40:09;100360.34;;;8.28;16.31
39051;BME280;24805;55.852;37.644;2024-03-06T14:45:11;100358.59;;;7.52;15.83
39051;BME280;24805;55.852;37.644;2024-03-06T14:50:14;100353.25;;;6.73;16.74
39051;BME280;24805;55.852;37.644;2024-03-06T14:55:16;100348.41;;;5.85;16.80
39051;BME280;24805;55.852;37.644;2024-03-06T15:00:19;100358.94;;;5.10;17.63
39051;BME280;24805;55.852;37.644;2024-03-06T15:05:23;100359.44;;;4.37;18.77
39051;BME280;24805;55.852;37.644;2024-03-06T15:10:26;100359.03;;;3.73;18.78
39051;BME280;24805;55.852;37.644;2024-03-06T15:15:28;100349.97;;;3.19;19.27
39051;BME280;24805;55.852;37.644;2024-03-06T15:20:30;100353.31;;;2.71;20.63
39051;BME280;24805;55.852;37.644;2024-03-06T15:25:35;100363.00;;;2.33;20.81
39051;BME280;24805;55.852;37.644;2024-03-06T15:30:37;100363.69;;;1.97;21.45
39051;BME280;24805;55.852;37.644;2024-03-06T15:35:40;100363.63;;;1.71;21.49
39051;BME280;24805;55.852;37.644;2024-03-06T15:40:42;100367.75;;;1.49;22.42
39051;BME280;24805;55.852;37.644;2024-03-06T15:45:44;100358.88;;;1.24;23.02
39051;BME280;24805;55.852;37.644;2024-03-06T15:50:47;100371.97;;;1.10;23.65
39051;BME280;24805;55.852;37.644;2024-03-06T15:55:49;100366.78;;;0.96;23.26
39051;BME280;24805;55.852;37.644;2024-03-06T16:00:52;100335.56;;;0.66;23.94
39051;BME280;24805;55.852;37.644;2024-03-06T16:06:01;100371.94;;;0.69;24.18
39051;BME280;24805;55.852;37.644;2024-03-06T16:11:18;100366.47;;;0.59;24.41
39051;BME280;24805;55.852;37.644;2024-03-06T16:16:21;100353.84;;;0.52;24.78
39051;BME280;24805;55.852;37.644;2024-03-06T16:21:24;100357.94;;;0.42;25.26
39051;BME280;24805;55.852;37.644;2024-03-06T16:26:30;100362.44;;;0.40;25.31
39051;BME280;24805;55.852;37.644;2024-03-06T16:31:33;100357.09;;;0.27;24.76
39051;BME280;24805;55.852;37.644;2024-03-06T16:36:35;100348.06;;;0.18;25.75
39051;BME280;24805;55.852;37.644;2024-03-06T16:41:40;100353.19;;;0.20;25.54
39051;BME280;24805;55.852;37.644;2024-03-06T16:46:44;100325.28;;;-0.08;26.09
39051;BME280;24805;55.852;37.644;2024-03-06T16:51:46;100339.66;;;-0.01;26.11
39051;BME280;24805;55.852;37.644;2024-03-06T16:56:48;100344.66;;;0.02;25.98
39051;BME280;24805;55.852;37.644;2024-03-06T17:01:51;100349.25;;;-0.02;26.06
39051;BME280;24805;55.852;37.644;2024-03-06T17:06:53;100350.34;;;-0.06;26.20
39051;BME280;24805;55.852;37.644;2024-03-06T17:11:55;100352.22;;;-0.08;27.02
39051;BME280;24805;55.852;37.644;2024-03-06T17:16:58;100348.19;;;-0.13;26.34
39051;BME280;24805;55.852;37.644;2024-03-06T17:22:00;100348.34;;;-0.16;26.54
39051;BME280;24805;55.852;37.644;2024-03-06T17:27:04;100355.50;;;-0.20;26.68
39051;BME280;24805;55.852;37.644;2024-03-06T17:32:07;100345.19;;;-0.21;27.16
39051;BME280;24805;55.852;37.644;2024-03-06T17:37:09;100345.28;;;-0.23;27.92
39051;BME280;24805;55.852;37.644;2024-03-06T17:42:12;100348.25;;;-0.29;27.25
39051;BME280;24805;55.852;37.644;2024-03-06T17:47:14;100349.44;;;-0.35;27.63
39051;BME280;24805;55.852;37.644;2024-03-06T17:52:17;100350.53;;;-0.39;27.67
39051;BME280;24805;55.852;37.644;2024-03-06T17:57:19;100353.25;;;-0.40;27.90
39051;BME280;24805;55.852;37.644;2024-03-06T18:02:22;100354.81;;;-0.38;27.65
39051;BME280;24805;55.852;37.644;2024-03-06T18:07:24;100345.13;;;-0.36;27.56
39051;BME280;24805;55.852;37.644;2024-03-06T18:12:27;100340.69;;;-0.33;27.79
39051;BME280;24805;55.852;37.644;2024-03-06T18:17:30;100333.19;;;-0.40;28.03
39051;BME280;24805;55.852;37.644;2024-03-06T18:22:33;100354.06;;;-0.40;27.46
39051;BME280;24805;55.852;37.644;2024-03-06T18:27:35;100343.06;;;-0.45;27.17
39051;BME280;24805;55.852;37.644;2024-03-06T18:32:38;100338.22;;;-0.51;27.91
39051;BME280;24805;55.852;37.644;2024-03-06T18:37:40;100337.69;;;-0.57;27.79
39051;BME280;24805;55.852;37.644;2024-03-06T18:42:42;100337.06;;;-0.61;27.69
39051;BME280;24805;55.852;37.644;2024-03-06T18:47:45;100331.44;;;-0.69;27.03
39051;BME280;24805;55.852;37.644;2024-03-06T18:52:48;100339.16;;;-0.67;27.43
39051;BME280;24805;55.852;37.644;2024-03-06T18:57:50;100340.00;;;-0.67;26.56
39051;BME280;24805;55.852;37.644;2024-03-06T19:02:53;100338.31;;;-0.68;27.43
39051;BME280;24805;55.852;37.644;2024-03-06T19:07:57;100341.19;;;-0.73;27.20
39051;BME280;24805;55.852;37.644;2024-03-06T19:12:59;100343.13;;;-0.76;27.17
39051;BME280;24805;55.852;37.644;2024-03-06T19:18:03;100337.91;;;-0.76;28.23
39051;BME280;24805;55.852;37.644;2024-03-06T19:23:06;100336.22;;;-0.77;27.67
39051;BME280;24805;55.852;37.644;2024-03-06T19:28:09;100339.50;;;-0.74;27.64
39051;BME280;24805;55.852;37.644;2024-03-06T19:33:11;100336.91;;;-0.74;27.41
39051;BME280;24805;55.852;37.644;2024-03-06T19:38:14;100317.34;;;-0.81;28.23
39051;BME280;24805;55.852;37.644;2024-03-06T19:43:19;100323.03;;;-0.74;28.46
39051;BME280;24805;55.852;37.644;2024-03-06T19:48:22;100328.25;;;-0.74;28.75
39051;BME280;24805;55.852;37.644;2024-03-06T19:53:25;100317.91;;;-0.76;28.73
39051;BME280;24805;55.852;37.644;2024-03-06T19:58:27;100308.34;;;-0.91;28.94
39051;BME280;24805;55.852;37.644;2024-03-06T20:03:30;100317.50;;;-0.84;29.38
39051;BME280;24805;55.852;37.644;2024-03-06T20:08:32;100321.88;;;-0.84;29.70
39051;BME280;24805;55.852;37.644;2024-03-06T20:13:35;100324.81;;;-0.90;29.77
39051;BME280;24805;55.852;37.644;2024-03-06T20:18:38;100261.84;;;-1.28;30.24
39051;BME280;24805;55.852;37.644;2024-03-06T20:23:40;100306.69;;;-1.08;30.34
39051;BME280;24805;55.852;37.644;2024-03-06T20:28:43;100310.13;;;-1.07;30.58
39051;BME280;24805;55.852;37.644;2024-03-06T20:33:47;100312.91;;;-1.10;30.77
39051;BME280;24805;55.852;37.644;2024-03-06T20:38:49;100310.47;;;-1.13;31.30
39051;BME280;24805;55.852;37.644;2024-03-06T20:43:52;100307.00;;;-1.14;30.99
39051;BME280;24805;55.852;37.644;2024-03-06T20:48:54;100310.38;;;-1.12;30.79
39051;BME280;24805;55.852;37.644;2024-03-06T20:53:57;100305.84;;;-1.08;30.89
39051;BME280;24805;55.852;37.644;2024-03-06T20:59:01;100310.22;;;-1.09;30.83
39051;BME280;24805;55.852;37.644;2024-03-06T21:04:04;100304.31;;;-1.12;30.78
39051;BME280;24805;55.852;37.644;2024-03-06T21:09:06;100267.03;;;-1.28;30.93
39051;BME280;24805;55.852;37.644;2024-03-06T21:14:08;100295.75;;;-1.14;30.81
39051;BME280;24805;55.852;37.644;2024-03-06T21:19:11;100289.72;;;-1.15;30.92
39051;BME280;24805;55.852;37.644;2024-03-06T21:24:13;100289.72;;;-1.15;30.36
39051;BME280;24805;55.852;37.644;2024-03-06T21:29:19;100293.00;;;-1.11;30.76
39051;BME280;24805;55.852;37.644;2024-03-06T21:34:21;100287.34;;;-1.19;30.76
39051;BME280;24805;55.852;37.644;2024-03-06T21:39:23;100280.66;;;-1.23;30.80
39051;BME280;24805;55.852;37.644;2024-03-06T21:44:26;100282.59;;;-1.27;30.99
39051;BME280;24805;55.852;37.644;2024-03-06T21:49:30;100282.59;;;-1.27;30.81
39051;BME280;24805;55.852;37.644;2024-03-06T21:54:36;100279.53;;;-1.35;30.88
39051;BME280;24805;55.852;37.644;2024-03-06T21:59:39;100274.50;;;-1.38;30.72
39051;BME280;24805;55.852;37.644;2024-03-06T22:04:42;100278.22;;;-1.42;30.88
39051;BME280;24805;55.852;37.644;2024-03-06T22:09:44;100276.78;;;-1.48;30.95
39051;BME280;24805;55.852;37.644;2024-03-06T22:14:48;100276.19;;;-1.53;31.59
39051;BME280;24805;55.852;37.644;2024-03-06T22:19:50;100263.25;;;-1.70;32.09
39051;BME280;24805;55.852;37.644;2024-03-06T22:24:53;100283.13;;;-1.69;32.28
39051;BME280;24805;55.852;37.644;2024-03-06T22:29:55;100283.38;;;-1.74;32.25
39051;BME280;24805;55.852;37.644;2024-03-06T22:34:57;100283.38;;;-1.74;32.78
39051;BME280;24805;55.852;37.644;2024-03-06T22:40:00;100273.03;;;-1.75;32.78
39051;BME280;24805;55.852;37.644;2024-03-06T22:45:04;100274.13;;;-1.79;33.03
39051;BME280;24805;55.852;37.644;2024-03-06T22:50:06;100283.88;;;-1.83;33.14
39051;BME280;24805;55.852;37.644;2024-03-06T22:55:11;100285.88;;;-1.88;32.70
39051;BME280;24805;55.852;37.644;2024-03-06T23:00:14;100274.03;;;-1.93;33.46
39051;BME280;24805;55.852;37.644;2024-03-06T23:05:31;100272.69;;;-2.00;33.54
39051;BME280;24805;55.852;37.644;2024-03-06T23:10:34;100267.72;;;-2.05;33.47
39051;BME280;24805;55.852;37.644;2024-03-06T23:15:36;100264.50;;;-2.10;33.33
39051;BME280;24805;55.852;37.644;2024-03-06T23:20:39;100257.63;;;-2.11;33.75
39051;BME280;24805;55.852;37.644;2024-03-06T23:25:41;100252.81;;;-2.19;34.09
39051;BME280;24805;55.852;37.644;2024-03-06T23:30:43;100260.53;;;-2.17;33.71
39051;BME280;24805;55.852;37.644;2024-03-06T23:35:46;100222.56;;;-2.37;34.29
39051;BME280;24805;55.852;37.644;2024-03-06T23:40:49;100234.09;;;-2.25;33.84
39051;BME280;24805;55.852;37.644;2024-03-06T23:45:51;100235.03;;;-2.26;33.88
39051;BME280;24805;55.852;37.644;2024-03-06T23:50:53;100232.50;;;-2.28;33.99
39051;BME280;24805;55.852;37.644;2024-03-06T23:55:56;100231.97;;;-2.34;33.96
